Impacts TAF Board
For situational awareness. Not to be used for flight planning purposes.
IDs:

KHPN - White Plains/Westche, NY, US

Issued at 1730 UTC 21 Sep 2021
Updated at 1934 UTC 21 Sep 2021
Potential Impact None Slight Moderate High
Time<<22/08Z 22/09Z 22/10Z 22/11Z 22/12Z 22/13Z 22/14Z 22/15Z 22/16Z 22/17Z 22/18Z 22/19Z 22/20Z>>
Type PRVL PRVL PRVL PRVL PRVL PRVL PRVL PRVL PRVL PRVL
VIS 3 3 3 3 3 3 >6 >6 >6 >6
CIG 5 5 5 5 5 5 20 20 20 20
Cover BKN BKN BKN BKN BKN BKN BKN BKN BKN BKN
FltCat IFR IFR IFR IFR IFR IFR MVFR MVFR MVFR MVFR
WX BR BR BR BR BR BR -- -- -- --
WDir 120 120 120 120 120 120 150 150 150 150
WSpd 4 4 4 4 4 4 10 10 10 10
WGst -- -- -- -- -- -- 16 16 16 16
Raw TAF
KHPN 211730Z 2118/2218 14006KT P6SM SCT025 SCT045
  FM220600 11003KT 6SM BR SCT005 BKN012
  FM220800 12004KT 3SM BR BKN005 BKN010
  FM221400 15010G16KT P6SM SCT012 BKN020 AMD NOT SKED


METAR Board
Radar Display
Forecast Discussion
For situational awareness. Not to be used for flight planning purposes.